createdAt,value
2017-05-05T00:00:27.446Z,9.30
2017-05-05T00:02:57.214Z,9.30
2017-05-05T00:05:26.316Z,9.20
2017-05-05T00:07:55.359Z,9.30
2017-05-05T00:10:25.163Z,9.20
2017-05-05T00:12:54.939Z,9.20
2017-05-05T00:15:24.009Z,9.20
2017-05-05T00:17:53.040Z,9.10
2017-05-05T00:20:22.377Z,9.20
2017-05-05T00:22:51.679Z,9.30
2017-05-05T00:25:20.808Z,9.30
2017-05-05T00:27:49.846Z,9.30
2017-05-05T00:30:18.927Z,9.20
2017-05-05T00:32:47.970Z,9.20
2017-05-05T00:35:17.363Z,9.20
2017-05-05T00:37:46.461Z,9.20
2017-05-05T00:40:16.244Z,9.20
2017-05-05T00:42:45.324Z,9.20
2017-05-05T00:45:14.362Z,9.20
2017-05-05T00:47:43.456Z,9.20
2017-05-05T00:50:13.240Z,9.20
2017-05-05T00:52:42.316Z,9.20
2017-05-05T00:55:11.674Z,9.20
2017-05-05T00:57:40.740Z,9.20
2017-05-05T01:00:09.995Z,9.20
2017-05-05T01:02:39.076Z,9.20
2017-05-05T01:05:08.121Z,9.20
2017-05-05T01:07:37.201Z,9.10
2017-05-05T01:10:06.275Z,9.10
2017-05-05T01:12:35.545Z,9.10
2017-05-05T01:15:04.623Z,9.10
2017-05-05T01:17:34.447Z,9.10
2017-05-05T01:20:04.223Z,9.10
2017-05-05T01:22:33.302Z,9.10
2017-05-05T01:25:02.349Z,9.10
2017-05-05T01:27:32.167Z,9.10
2017-05-05T01:30:01.930Z,9.00
2017-05-05T01:32:31.020Z,9.10
2017-05-05T01:35:00.054Z,9.00
2017-05-05T01:37:29.114Z,9.10
2017-05-05T01:39:58.175Z,9.00
2017-05-05T01:42:27.250Z,9.00
2017-05-05T01:44:57.027Z,9.00
2017-05-05T01:47:26.119Z,9.00
2017-05-05T01:49:55.169Z,9.00
2017-05-05T01:52:24.231Z,9.10
2017-05-05T01:54:53.312Z,9.10
2017-05-05T01:57:22.345Z,9.10
2017-05-05T01:59:52.160Z,9.10
2017-05-05T02:02:21.931Z,9.10
2017-05-05T02:04:51.007Z,9.10
2017-05-05T02:07:20.040Z,9.10
2017-05-05T02:09:49.122Z,9.10
2017-05-05T02:12:18.156Z,9.20
2017-05-05T02:14:47.457Z,9.10
2017-05-05T02:17:16.535Z,9.10
2017-05-05T02:19:46.310Z,9.10
2017-05-05T02:22:15.379Z,9.10
2017-05-05T02:24:44.419Z,9.10
2017-05-05T02:27:13.757Z,9.10
2017-05-05T02:29:42.790Z,9.10
2017-05-05T02:32:11.887Z,9.00
2017-05-05T02:34:40.938Z,9.00
2017-05-05T02:37:10.733Z,9.00
2017-05-05T02:39:40.160Z,9.00
2017-05-05T02:42:09.220Z,9.00
2017-05-05T02:44:38.556Z,9.10
2017-05-05T02:47:07.596Z,9.10
2017-05-05T02:49:36.657Z,9.00
2017-05-05T02:52:05.726Z,9.10
2017-05-05T02:54:35.516Z,9.10
2017-05-05T02:57:04.586Z,9.10
2017-05-05T02:59:33.624Z,9.10
2017-05-05T03:02:03.423Z,9.20
2017-05-05T03:04:32.515Z,9.20
2017-05-05T03:07:01.547Z,9.20
2017-05-05T03:09:30.615Z,9.20
2017-05-05T03:11:59.703Z,9.20
2017-05-05T03:14:28.752Z,9.20
2017-05-05T03:16:57.811Z,9.20
2017-05-05T03:19:27.640Z,9.10
2017-05-05T03:21:57.467Z,9.10
2017-05-05T03:24:26.503Z,9.10
2017-05-05T03:26:55.558Z,9.10
2017-05-05T03:29:24.644Z,9.10
2017-05-05T03:31:53.689Z,9.10
2017-05-05T03:34:23.040Z,9.20
2017-05-05T03:36:52.112Z,9.20
2017-05-05T03:39:21.152Z,9.20
2017-05-05T03:41:50.313Z,9.20
2017-05-05T03:44:20.083Z,9.20
2017-05-05T03:46:49.168Z,9.20
2017-05-05T03:49:18.217Z,9.20
2017-05-05T03:51:48.020Z,9.10
2017-05-05T03:54:17.853Z,9.10
2017-05-05T03:56:47.627Z,9.10
2017-05-05T03:59:16.691Z,9.20
2017-05-05T04:01:45.800Z,9.20
2017-05-05T04:04:14.924Z,9.20
2017-05-05T04:06:44.005Z,9.20
2017-05-05T04:09:13.357Z,9.20
2017-05-05T04:11:42.426Z,9.30
2017-05-05T04:14:12.221Z,9.30
2017-05-05T04:16:41.274Z,9.30
2017-05-05T04:19:10.363Z,9.30
2017-05-05T04:21:39.386Z,9.30
2017-05-05T04:24:08.458Z,9.30
2017-05-05T04:26:37.544Z,9.30
2017-05-05T04:29:06.577Z,9.30
2017-05-05T04:31:35.654Z,9.30
2017-05-05T04:34:04.691Z,9.30
2017-05-05T04:36:33.767Z,9.30
2017-05-05T04:39:02.807Z,9.30
2017-05-05T04:41:32.629Z,9.30
2017-05-05T04:44:01.657Z,9.30
2017-05-05T04:46:30.728Z,9.30
2017-05-05T04:48:59.792Z,9.30
2017-05-05T04:51:28.831Z,9.30
2017-05-05T04:53:57.912Z,9.40
2017-05-05T04:56:27.204Z,9.40
2017-05-05T04:58:56.269Z,9.40
2017-05-05T05:01:25.335Z,9.40
2017-05-05T05:03:54.369Z,9.40
2017-05-05T05:06:24.188Z,9.40
2017-05-05T05:08:53.977Z,9.30
2017-05-05T05:11:23.038Z,9.40
2017-05-05T05:13:52.108Z,9.40
2017-05-05T05:16:21.147Z,9.40
2017-05-05T05:18:50.215Z,9.40
2017-05-05T05:21:19.260Z,9.50
2017-05-05T05:23:48.326Z,9.50
2017-05-05T05:26:17.366Z,9.50
2017-05-05T05:28:47.202Z,9.50
2017-05-05T05:31:16.235Z,9.50
2017-05-05T05:33:45.312Z,9.50
2017-05-05T05:36:14.345Z,9.50
2017-05-05T05:38:43.440Z,9.50
2017-05-05T05:41:12.466Z,9.60
2017-05-05T05:43:41.537Z,9.50
2017-05-05T05:46:10.599Z,9.50
2017-05-05T05:48:39.643Z,9.50
2017-05-05T05:51:09.466Z,9.50
2017-05-05T05:53:38.516Z,9.60
2017-05-05T05:56:07.583Z,9.60
2017-05-05T05:58:36.675Z,9.70
2017-05-05T06:01:05.955Z,9.70
2017-05-05T06:03:35.022Z,9.70
2017-05-05T06:06:04.060Z,9.70
2017-05-05T06:08:33.138Z,9.80
2017-05-05T06:11:02.919Z,9.80
2017-05-05T06:13:31.999Z,9.90
2017-05-05T06:16:01.068Z,9.90
2017-05-05T06:18:30.149Z,9.90
2017-05-05T06:20:59.225Z,10.00
2017-05-05T06:23:29.048Z,10.00
2017-05-05T06:25:58.823Z,10.00
2017-05-05T06:28:27.890Z,10.10
2017-05-05T06:30:57.267Z,10.00
2017-05-05T06:33:26.302Z,10.00
2017-05-05T06:35:55.393Z,10.00
2017-05-05T06:38:24.432Z,10.10
2017-05-05T06:40:54.268Z,10.10
2017-05-05T06:43:24.193Z,10.10
2017-05-05T06:45:53.239Z,10.10
2017-05-05T06:48:22.325Z,10.00
2017-05-05T06:50:52.252Z,10.10
2017-05-05T06:53:21.304Z,10.10
2017-05-05T06:55:50.379Z,10.10
2017-05-05T06:58:19.449Z,10.20
2017-05-05T07:00:49.491Z,10.30
2017-05-05T07:03:18.579Z,10.30
2017-05-05T07:05:47.647Z,10.30
2017-05-05T07:08:16.990Z,10.30
2017-05-05T07:10:46.046Z,10.40
2017-05-05T07:13:15.098Z,10.50
2017-05-05T07:15:44.177Z,10.60
2017-05-05T07:18:13.223Z,10.60
2017-05-05T07:20:42.306Z,10.60
2017-05-05T07:23:11.394Z,10.60
2017-05-05T07:25:40.440Z,10.70
2017-05-05T07:28:10.271Z,10.70
2017-05-05T07:30:39.571Z,10.70
2017-05-05T07:33:08.631Z,10.80
2017-05-05T07:35:37.723Z,10.70
2017-05-05T07:38:06.760Z,10.70
2017-05-05T07:40:35.824Z,10.70
2017-05-05T07:43:05.644Z,10.70
2017-05-05T07:45:35.427Z,10.70
2017-05-05T07:48:04.508Z,10.80
2017-05-05T07:50:33.551Z,10.90
2017-05-05T07:53:03.363Z,10.90
2017-05-05T07:55:33.182Z,10.90
2017-05-05T07:58:02.231Z,11.00
2017-05-05T08:00:31.312Z,11.00
2017-05-05T08:03:00.415Z,11.00
2017-05-05T08:05:29.479Z,11.10
2017-05-05T08:07:58.579Z,11.10
2017-05-05T08:10:27.623Z,11.10
2017-05-05T08:12:56.696Z,11.10
2017-05-05T08:15:25.783Z,11.10
2017-05-05T08:17:55.067Z,11.00
2017-05-05T08:20:24.154Z,11.00
2017-05-05T08:22:53.200Z,11.10
2017-05-05T08:25:22.316Z,11.10
2017-05-05T08:27:51.366Z,11.20
2017-05-05T08:30:20.432Z,11.20
2017-05-05T08:32:49.515Z,11.30
2017-05-05T08:35:19.301Z,11.30
2017-05-05T08:37:48.401Z,11.30
2017-05-05T08:40:17.444Z,11.40
2017-05-05T08:42:46.520Z,11.50
2017-05-05T08:45:16.368Z,11.50
2017-05-05T08:47:45.747Z,11.50
2017-05-05T08:50:14.847Z,11.50
2017-05-05T08:52:43.915Z,11.40
2017-05-05T08:55:13.731Z,11.40
2017-05-05T08:57:43.518Z,11.50
2017-05-05T09:00:12.621Z,11.50
2017-05-05T09:02:41.650Z,11.70
2017-05-05T09:05:10.732Z,11.80
2017-05-05T09:07:40.548Z,11.80
2017-05-05T09:10:10.377Z,11.80
2017-05-05T09:12:39.414Z,11.70
2017-05-05T09:15:08.495Z,11.60
2017-05-05T09:17:37.542Z,11.70
2017-05-05T09:20:07.357Z,11.70
2017-05-05T09:22:37.398Z,11.80
2017-05-05T09:25:06.491Z,11.90
2017-05-05T09:27:35.531Z,11.90
2017-05-05T09:30:04.613Z,12.00
2017-05-05T09:32:33.708Z,12.00
2017-05-05T09:35:02.754Z,12.00
2017-05-05T09:37:32.566Z,11.90
2017-05-05T09:40:02.351Z,11.80
2017-05-05T09:42:31.431Z,11.80
2017-05-05T09:45:00.515Z,11.80
2017-05-05T09:47:29.562Z,11.80
2017-05-05T09:49:59.388Z,11.80
2017-05-05T09:52:28.434Z,11.90
2017-05-05T09:54:57.519Z,12.00
2017-05-05T09:57:26.607Z,12.00
2017-05-05T09:59:55.656Z,12.10
2017-05-05T10:02:25.483Z,12.10
2017-05-05T10:04:55.275Z,12.10
2017-05-05T10:07:24.366Z,12.30
2017-05-05T10:09:53.430Z,12.30
2017-05-05T10:12:22.495Z,12.30
2017-05-05T10:14:51.570Z,12.30
2017-05-05T10:17:21.384Z,12.40
2017-05-05T10:19:51.172Z,12.40
2017-05-05T10:22:20.244Z,12.30
2017-05-05T10:24:49.345Z,12.40
2017-05-05T10:27:18.382Z,12.30
2017-05-05T10:29:48.192Z,12.30
2017-05-05T10:32:18.338Z,12.40
2017-05-05T10:34:47.382Z,12.60
2017-05-05T10:37:16.478Z,12.60
2017-05-05T10:39:45.559Z,12.60
2017-05-05T10:42:14.617Z,12.60
2017-05-05T10:44:43.715Z,12.80
2017-05-05T10:47:12.758Z,12.80
2017-05-05T10:49:41.845Z,12.80
2017-05-05T10:52:10.956Z,12.90
2017-05-05T10:54:39.996Z,13.00
2017-05-05T10:57:09.500Z,13.10
2017-05-05T10:59:38.588Z,13.20
2017-05-05T11:02:08.368Z,13.10
2017-05-05T11:04:37.460Z,13.10
2017-05-05T11:07:06.496Z,13.20
2017-05-05T11:09:35.905Z,13.30
2017-05-05T11:12:04.988Z,13.10
2017-05-05T11:14:34.777Z,12.90
2017-05-05T11:17:03.862Z,12.80
2017-05-05T11:19:32.917Z,12.70
2017-05-05T11:22:01.985Z,12.70
2017-05-05T11:24:32.228Z,12.70
2017-05-05T11:27:01.268Z,12.60
2017-05-05T11:29:30.354Z,12.50
2017-05-05T11:31:59.427Z,12.50
2017-05-05T11:34:28.476Z,12.40
2017-05-05T11:36:57.562Z,12.50
2017-05-05T11:39:26.608Z,12.60
2017-05-05T11:41:55.679Z,12.70
2017-05-05T11:44:25.506Z,12.80
2017-05-05T11:46:54.571Z,12.80
2017-05-05T11:49:23.635Z,12.80
2017-05-05T11:51:52.723Z,12.90
2017-05-05T11:54:21.765Z,13.10
2017-05-05T11:56:51.587Z,13.10
2017-05-05T11:59:21.376Z,12.90
2017-05-05T12:01:50.470Z,12.90
2017-05-05T12:04:19.517Z,13.00
2017-05-05T12:06:48.594Z,13.10
2017-05-05T12:09:17.648Z,13.10
2017-05-05T12:11:46.732Z,13.20
2017-05-05T12:14:15.804Z,13.20
2017-05-05T12:16:45.087Z,13.30
2017-05-05T12:19:14.160Z,13.30
2017-05-05T12:21:43.983Z,13.40
2017-05-05T12:24:13.788Z,13.40
2017-05-05T12:26:43.611Z,13.40
2017-05-05T12:29:13.386Z,13.40
2017-05-05T12:31:42.467Z,13.40
2017-05-05T12:34:11.511Z,13.20
2017-05-05T12:36:41.653Z,13.10
2017-05-05T12:39:10.696Z,13.10
2017-05-05T12:41:39.835Z,13.20
2017-05-05T12:44:08.889Z,13.20
2017-05-05T12:46:37.967Z,13.20
2017-05-05T12:49:07.023Z,13.10
2017-05-05T12:51:36.097Z,13.10
2017-05-05T12:54:05.927Z,13.10
2017-05-05T12:56:34.983Z,13.20
2017-05-05T12:59:04.064Z,13.20
2017-05-05T13:01:33.141Z,13.20
2017-05-05T13:04:02.183Z,13.30
2017-05-05T13:06:31.261Z,13.40
2017-05-05T13:09:00.307Z,13.30
2017-05-05T13:11:29.400Z,13.30
2017-05-05T13:13:58.454Z,13.30
2017-05-05T13:16:27.530Z,13.30
2017-05-05T13:18:56.617Z,13.30
2017-05-05T13:21:25.660Z,13.40
2017-05-05T13:23:55.490Z,13.40
2017-05-05T13:26:24.537Z,13.50
2017-05-05T13:28:53.627Z,13.40
2017-05-05T13:31:22.673Z,13.30
2017-05-05T13:33:52.528Z,13.30
2017-05-05T13:36:21.571Z,13.20
2017-05-05T13:38:51.710Z,13.00
2017-05-05T13:41:20.761Z,13.10
2017-05-05T13:43:49.840Z,13.10
2017-05-05T13:46:18.932Z,13.10
2017-05-05T13:48:47.961Z,13.10
2017-05-05T13:51:17.791Z,13.00
2017-05-05T13:53:47.570Z,13.00
2017-05-05T13:56:16.667Z,13.00
2017-05-05T13:58:45.715Z,13.10
2017-05-05T14:01:14.778Z,13.20
2017-05-05T14:03:44.591Z,13.30
2017-05-05T14:06:14.378Z,13.30
2017-05-05T14:08:43.472Z,13.40
2017-05-05T14:11:12.520Z,13.50
2017-05-05T14:13:41.596Z,13.50
2017-05-05T14:16:11.652Z,13.50
2017-05-05T14:18:40.692Z,13.50
2017-05-05T14:21:09.779Z,13.40
2017-05-05T14:23:39.127Z,13.40
2017-05-05T14:26:08.212Z,13.40
2017-05-05T14:28:38.037Z,13.40
2017-05-05T14:31:07.336Z,13.50
2017-05-05T14:33:36.422Z,13.70
2017-05-05T14:36:05.516Z,13.70
2017-05-05T14:38:35.303Z,13.90
2017-05-05T14:41:04.644Z,14.10
2017-05-05T14:43:33.684Z,14.50
2017-05-05T14:46:02.780Z,14.90
2017-05-05T14:48:31.827Z,15.20
2017-05-05T14:51:00.908Z,15.40
2017-05-05T14:53:30.680Z,15.50
2017-05-05T14:55:59.746Z,15.60
2017-05-05T14:58:28.828Z,15.80
2017-05-05T15:00:57.873Z,15.80
2017-05-05T15:03:26.975Z,15.80
2017-05-05T15:05:56.254Z,16.00
2017-05-05T15:08:25.325Z,15.90
2017-05-05T15:10:54.718Z,15.90
2017-05-05T15:13:24.127Z,16.00
2017-05-05T15:15:53.167Z,15.90
2017-05-05T15:18:22.256Z,15.80
2017-05-05T15:20:51.335Z,15.90
2017-05-05T15:23:20.390Z,16.00
2017-05-05T15:25:50.223Z,15.80
2017-05-05T15:28:19.272Z,15.30
2017-05-05T15:30:48.338Z,14.90
2017-05-05T15:33:17.406Z,14.90
2017-05-05T15:35:46.460Z,14.90
2017-05-05T15:38:15.800Z,14.90
2017-05-05T15:40:44.837Z,14.80
2017-05-05T15:43:13.927Z,14.80
2017-05-05T15:45:42.971Z,14.90
2017-05-05T15:48:12.808Z,14.80
2017-05-05T15:50:41.868Z,14.70
2017-05-05T15:53:10.934Z,14.60
2017-05-05T15:55:39.975Z,14.50
2017-05-05T15:58:09.067Z,14.40
2017-05-05T16:00:38.847Z,14.30
2017-05-05T16:03:08.195Z,14.10
2017-05-05T16:05:37.243Z,14.10
2017-05-05T16:08:06.337Z,14.10
2017-05-05T16:10:35.383Z,14.10
2017-05-05T16:13:04.455Z,14.10
2017-05-05T16:15:34.279Z,14.10
2017-05-05T16:18:04.062Z,14.00
2017-05-05T16:20:33.144Z,14.10
2017-05-05T16:23:02.197Z,14.00
2017-05-05T16:25:31.281Z,14.00
2017-05-05T16:28:01.064Z,13.90
2017-05-05T16:30:30.370Z,13.90
2017-05-05T16:32:59.419Z,13.90
2017-05-05T16:35:28.500Z,13.80
2017-05-05T16:37:57.575Z,13.70
2017-05-05T16:40:27.351Z,13.70
2017-05-05T16:42:56.434Z,13.60
2017-05-05T16:45:25.497Z,13.60
2017-05-05T16:47:54.571Z,13.60
2017-05-05T16:50:24.422Z,13.60
2017-05-05T16:52:53.466Z,13.60
2017-05-05T16:55:22.537Z,13.60
2017-05-05T16:57:51.612Z,13.60
2017-05-05T17:00:20.660Z,13.50
2017-05-05T17:02:49.732Z,13.50
2017-05-05T17:07:36.301Z,13.50
2017-05-05T17:10:05.335Z,13.50
2017-05-05T17:12:34.417Z,13.50
2017-05-05T17:15:03.523Z,13.50
2017-05-05T17:17:32.599Z,13.60
2017-05-05T17:20:01.928Z,13.60
2017-05-05T17:22:30.967Z,13.60
2017-05-05T17:25:00.792Z,13.70
2017-05-05T17:27:29.830Z,13.70
2017-05-05T17:29:58.916Z,13.70
2017-05-05T17:32:28.283Z,13.70
2017-05-05T17:34:57.357Z,13.70
2017-05-05T17:37:26.451Z,13.70
2017-05-05T17:39:55.500Z,13.70
2017-05-05T17:42:24.577Z,13.80
2017-05-05T17:44:53.655Z,13.80
2017-05-05T17:47:23.437Z,13.90
2017-05-05T17:49:52.532Z,13.90
2017-05-05T17:52:21.796Z,13.80
2017-05-05T17:54:50.876Z,13.80
2017-05-05T17:57:19.922Z,13.80
2017-05-05T17:59:49.041Z,13.70
2017-05-05T18:02:18.827Z,13.70
2017-05-05T18:04:47.925Z,13.70
2017-05-05T18:07:16.962Z,13.70
2017-05-05T18:09:46.052Z,13.70
2017-05-05T18:12:15.888Z,13.60
2017-05-05T18:14:44.964Z,13.60
2017-05-05T18:17:14.370Z,13.60
2017-05-05T18:19:43.777Z,13.60
2017-05-05T18:22:13.078Z,13.60
2017-05-05T18:24:42.158Z,13.60
2017-05-05T18:27:11.939Z,13.60
2017-05-05T18:29:41.030Z,13.60
2017-05-05T18:32:10.076Z,13.60
2017-05-05T18:34:39.147Z,13.60
2017-05-05T18:37:08.969Z,13.50
2017-05-05T18:39:39.555Z,13.50
2017-05-05T18:42:08.644Z,13.50
2017-05-05T18:44:37.679Z,13.50
2017-05-05T18:47:07.517Z,13.40
2017-05-05T18:49:36.560Z,13.30
2017-05-05T18:52:05.633Z,13.30
2017-05-05T18:54:34.926Z,13.30
2017-05-05T18:57:04.722Z,13.30
2017-05-05T18:59:34.547Z,13.20
2017-05-05T19:02:04.549Z,13.30
2017-05-05T19:04:34.427Z,13.30
2017-05-05T19:07:03.827Z,13.30
2017-05-05T19:09:37.342Z,13.20
2017-05-05T19:12:15.055Z,13.20
2017-05-05T19:14:48.296Z,13.20
2017-05-05T19:17:23.000Z,13.20
2017-05-05T19:19:54.541Z,13.20
2017-05-05T19:22:25.027Z,13.20
2017-05-05T19:24:55.214Z,13.20
2017-05-05T19:27:25.273Z,13.20
2017-05-05T19:29:54.389Z,13.20
2017-05-05T19:32:23.419Z,13.20
2017-05-05T19:34:52.487Z,13.20
2017-05-05T19:37:22.355Z,13.10
2017-05-05T19:39:51.399Z,13.20
2017-05-05T19:42:21.211Z,13.10
2017-05-05T19:44:51.155Z,13.10
2017-05-05T19:47:20.420Z,13.20
2017-05-05T19:49:50.252Z,13.10
2017-05-05T19:52:19.307Z,13.10
2017-05-05T19:54:48.412Z,13.10
2017-05-05T19:57:17.455Z,13.10
2017-05-05T19:59:46.671Z,13.00
2017-05-05T20:02:15.891Z,13.10
2017-05-05T20:04:45.117Z,13.10
2017-05-05T20:07:14.994Z,13.00
2017-05-05T20:09:44.066Z,13.00
2017-05-05T20:12:13.942Z,13.00
2017-05-05T20:14:43.003Z,13.00
2017-05-05T20:17:12.100Z,12.90
2017-05-05T20:19:41.152Z,12.90
2017-05-05T20:22:10.259Z,12.80
2017-05-05T20:24:39.363Z,12.80
2017-05-05T20:27:08.439Z,12.70
2017-05-05T20:29:37.595Z,12.70
2017-05-05T20:32:06.930Z,12.80
2017-05-05T20:34:36.016Z,12.80
2017-05-05T20:37:05.800Z,12.80
2017-05-05T20:39:34.892Z,12.70
2017-05-05T20:42:03.932Z,12.70
2017-05-05T20:44:33.008Z,12.60
2017-05-05T20:47:02.835Z,12.60
2017-05-05T20:49:31.874Z,12.60
2017-05-05T20:52:00.955Z,12.50
2017-05-05T20:54:30.045Z,12.60
2017-05-05T20:56:59.087Z,12.50
2017-05-05T20:59:28.155Z,12.50
2017-05-05T21:01:57.227Z,12.50
2017-05-05T21:04:26.282Z,12.50
2017-05-05T21:06:56.098Z,12.50
2017-05-05T21:09:25.898Z,12.60
2017-05-05T21:11:54.983Z,12.50
2017-05-05T21:14:24.047Z,12.40
2017-05-05T21:16:53.121Z,12.50
2017-05-05T21:19:22.217Z,12.50
2017-05-05T21:21:51.251Z,12.50
2017-05-05T21:24:20.327Z,12.50
2017-05-05T21:26:49.403Z,12.50
2017-05-05T21:29:18.447Z,12.50
2017-05-05T21:31:47.532Z,12.50
2017-05-05T21:34:16.820Z,12.50
2017-05-05T21:36:45.896Z,12.50
2017-05-05T21:39:14.943Z,12.40
2017-05-05T21:41:44.088Z,12.30
2017-05-05T21:44:13.397Z,12.20
2017-05-05T21:46:42.437Z,12.10
2017-05-05T21:49:11.579Z,12.00
2017-05-05T21:51:40.670Z,12.00
2017-05-05T21:54:09.744Z,12.00
2017-05-05T21:56:39.607Z,12.10
2017-05-05T21:59:08.653Z,12.10
2017-05-05T22:01:38.899Z,12.10
2017-05-05T22:04:08.019Z,12.20
2017-05-05T22:06:37.152Z,12.20
2017-05-05T22:09:06.958Z,12.20
2017-05-05T22:11:36.055Z,12.20
2017-05-05T22:14:05.328Z,12.20
2017-05-05T22:16:34.404Z,12.20
2017-05-05T22:19:03.480Z,12.10
2017-05-05T22:21:33.270Z,12.10
2017-05-05T22:24:02.351Z,12.10
2017-05-05T22:26:31.411Z,12.10
2017-05-05T22:29:00.723Z,12.20
2017-05-05T22:31:29.793Z,12.20
2017-05-05T22:33:58.841Z,12.20
2017-05-05T22:36:27.929Z,12.20
2017-05-05T22:38:56.972Z,12.20
2017-05-05T22:41:26.384Z,12.20
2017-05-05T22:43:55.563Z,12.20
2017-05-05T22:46:25.600Z,12.10
2017-05-05T22:48:54.905Z,12.20
2017-05-05T22:51:24.303Z,12.10
2017-05-05T22:53:53.343Z,12.10
2017-05-05T22:56:22.435Z,12.10
2017-05-05T22:58:51.476Z,12.10
2017-05-05T23:01:21.290Z,12.10
2017-05-05T23:03:51.096Z,12.10
2017-05-05T23:06:20.882Z,12.20
2017-05-05T23:08:50.231Z,12.20
2017-05-05T23:11:19.268Z,12.20
2017-05-05T23:13:48.337Z,12.10
2017-05-05T23:16:17.400Z,12.10
2017-05-05T23:18:47.204Z,12.10
2017-05-05T23:21:16.289Z,12.00
2017-05-05T23:23:45.318Z,12.00
2017-05-05T23:26:14.452Z,12.00
2017-05-05T23:28:43.487Z,11.90
2017-05-05T23:31:13.318Z,11.90
2017-05-05T23:33:43.127Z,11.80
2017-05-05T23:36:13.260Z,11.70
2017-05-05T23:38:42.373Z,11.70
2017-05-05T23:41:11.396Z,11.60
2017-05-05T23:43:40.493Z,11.50
2017-05-05T23:46:09.604Z,11.50
2017-05-05T23:48:38.661Z,11.40
2017-05-05T23:51:07.732Z,11.40
2017-05-05T23:53:36.855Z,11.40
2017-05-05T23:56:05.900Z,11.30
2017-05-05T23:58:34.988Z,11.20
